createdAt,value
2022-12-27T00:00:14.435Z,88.74
2022-12-27T00:01:16.317Z,88.61
2022-12-27T00:01:49.850Z,88.57
2022-12-27T00:02:23.349Z,88.66
2022-12-27T00:02:56.972Z,88.77
2022-12-27T00:03:30.966Z,88.69
2022-12-27T00:04:04.487Z,88.68
2022-12-27T00:04:37.885Z,88.84
2022-12-27T00:05:13.336Z,88.57
2022-12-27T00:05:47.900Z,88.31
2022-12-27T00:06:23.295Z,88.38
2022-12-27T00:06:56.869Z,88.43
2022-12-27T00:07:30.331Z,88.59
2022-12-27T00:08:04.173Z,88.30
2022-12-27T00:08:37.881Z,88.15
2022-12-27T00:09:11.543Z,88.41
2022-12-27T00:09:47.243Z,88.81
2022-12-27T00:10:20.713Z,88.51
2022-12-27T00:10:54.135Z,88.66
2022-12-27T00:11:31.727Z,88.59
2022-12-27T00:12:07.014Z,88.48
2022-12-27T00:12:40.492Z,88.52
2022-12-27T00:13:13.884Z,88.29
2022-12-27T00:13:48.255Z,88.05
2022-12-27T00:14:25.122Z,88.15
2022-12-27T00:14:58.655Z,88.05
2022-12-27T00:15:34.360Z,87.98
2022-12-27T00:16:11.032Z,87.41
2022-12-27T00:16:44.495Z,87.54
2022-12-27T00:17:17.874Z,87.41
2022-12-27T00:17:51.640Z,87.28
2022-12-27T00:18:25.083Z,87.22
2022-12-27T00:18:59.049Z,87.16
2022-12-27T00:19:32.474Z,87.02
2022-12-27T00:20:11.366Z,87.04
2022-12-27T00:20:45.404Z,87.32
2022-12-27T00:21:21.250Z,87.54
2022-12-27T00:21:54.859Z,87.41
2022-12-27T00:22:28.256Z,87.68
2022-12-27T00:23:02.072Z,88.03
2022-12-27T00:23:38.531Z,87.71
2022-12-27T00:24:11.995Z,87.76
2022-12-27T00:24:45.428Z,88.11
2022-12-27T00:25:18.809Z,87.57
2022-12-27T00:25:52.457Z,87.44
2022-12-27T00:26:28.776Z,87.59
2022-12-27T00:27:02.531Z,87.57
2022-12-27T00:27:36.020Z,87.54
2022-12-27T00:28:09.546Z,87.22
2022-12-27T00:28:43.678Z,86.95
2022-12-27T00:29:17.160Z,86.90
2022-12-27T00:29:50.718Z,86.52
2022-12-27T00:30:24.285Z,86.39
2022-12-27T00:30:59.459Z,86.22
2022-12-27T00:31:34.120Z,85.50
2022-12-27T00:32:08.079Z,85.54
2022-12-27T00:32:42.253Z,85.36
2022-12-27T00:33:15.646Z,84.76
2022-12-27T00:33:50.728Z,84.15
2022-12-27T00:34:24.190Z,84.14
2022-12-27T00:34:57.672Z,84.12
2022-12-27T00:35:31.060Z,84.41
2022-12-27T00:36:07.844Z,84.40
2022-12-27T00:36:41.358Z,84.33
2022-12-27T00:37:15.308Z,84.78
2022-12-27T00:37:48.682Z,85.15
2022-12-27T00:38:22.259Z,85.01
2022-12-27T00:38:57.640Z,85.56
2022-12-27T00:39:31.202Z,85.62
2022-12-27T00:40:05.005Z,85.78
2022-12-27T00:40:42.381Z,86.00
2022-12-27T00:41:16.926Z,85.95
2022-12-27T00:41:50.315Z,85.97
2022-12-27T00:42:23.728Z,85.72
2022-12-27T00:42:57.116Z,86.04
2022-12-27T00:43:30.688Z,85.79
2022-12-27T00:44:04.518Z,85.81
2022-12-27T00:44:38.142Z,85.72
2022-12-27T00:45:12.277Z,85.57
2022-12-27T00:45:46.283Z,85.86
2022-12-27T00:46:20.036Z,85.98
2022-12-27T00:46:53.477Z,86.47
2022-12-27T00:47:26.944Z,86.36
2022-12-27T00:48:00.305Z,86.23
2022-12-27T00:48:33.914Z,86.64
2022-12-27T00:49:07.357Z,86.77
2022-12-27T00:49:40.784Z,86.99
2022-12-27T00:50:14.259Z,86.95
2022-12-27T00:50:48.035Z,86.68
2022-12-27T00:51:24.127Z,87.11
2022-12-27T00:51:57.555Z,86.45
2022-12-27T00:52:30.991Z,86.23
2022-12-27T00:53:04.420Z,85.69
2022-12-27T00:53:37.930Z,85.54
2022-12-27T00:54:11.539Z,84.72
2022-12-27T00:54:44.901Z,84.37
2022-12-27T00:55:18.429Z,83.74
2022-12-27T00:55:52.282Z,83.46
2022-12-27T00:56:30.984Z,83.97
2022-12-27T00:57:04.421Z,84.33
2022-12-27T00:57:40.998Z,84.28
2022-12-27T00:58:14.943Z,84.18
2022-12-27T00:58:52.387Z,84.44
2022-12-27T00:59:25.815Z,84.73
2022-12-27T01:00:03.376Z,85.06
2022-12-27T01:00:40.665Z,85.10
2022-12-27T01:01:20.357Z,84.57
2022-12-27T01:01:54.500Z,84.89
2022-12-27T01:02:29.015Z,84.99
2022-12-27T01:03:05.337Z,84.98
2022-12-27T01:03:39.259Z,85.07
2022-12-27T01:04:14.851Z,84.69
2022-12-27T01:04:48.257Z,84.98
2022-12-27T01:05:22.391Z,84.86
2022-12-27T01:05:55.979Z,85.05
2022-12-27T01:06:32.454Z,85.12
2022-12-27T01:07:08.718Z,84.65
2022-12-27T01:07:42.204Z,85.12
2022-12-27T01:08:15.703Z,85.13
2022-12-27T01:08:49.940Z,84.78
2022-12-27T01:09:23.404Z,85.00
2022-12-27T01:09:56.903Z,84.99
2022-12-27T01:10:31.026Z,84.90
2022-12-27T01:11:05.694Z,84.80
2022-12-27T01:11:43.031Z,84.32
2022-12-27T01:12:19.376Z,84.21
2022-12-27T01:12:54.576Z,84.90
2022-12-27T01:13:28.082Z,85.16
2022-12-27T01:14:03.661Z,84.81
2022-12-27T01:14:37.167Z,84.45
2022-12-27T01:15:11.372Z,84.08
2022-12-27T01:15:44.787Z,84.31
2022-12-27T01:16:21.564Z,84.33
2022-12-27T01:16:55.124Z,84.27
2022-12-27T01:17:29.985Z,84.64
2022-12-27T01:18:03.456Z,84.94
2022-12-27T01:18:37.467Z,85.17
2022-12-27T01:19:13.750Z,84.89
2022-12-27T01:19:47.138Z,84.33
2022-12-27T01:20:20.868Z,84.76
2022-12-27T01:20:54.278Z,85.03
2022-12-27T01:21:31.032Z,85.04
2022-12-27T01:22:05.810Z,85.05
2022-12-27T01:22:39.518Z,85.28
2022-12-27T01:23:13.191Z,85.55
2022-12-27T01:23:47.562Z,85.58
2022-12-27T01:24:21.706Z,85.21
2022-12-27T01:24:55.225Z,85.54
2022-12-27T01:25:28.698Z,85.80
2022-12-27T01:26:04.783Z,85.39
2022-12-27T01:26:38.255Z,85.28
2022-12-27T01:27:13.720Z,85.55
2022-12-27T01:27:47.605Z,85.74
2022-12-27T01:28:21.162Z,85.96
2022-12-27T01:28:54.883Z,85.59
2022-12-27T01:29:28.396Z,85.89
2022-12-27T01:30:01.970Z,85.87
2022-12-27T01:30:35.782Z,85.77
2022-12-27T01:31:12.738Z,85.83
2022-12-27T01:31:47.033Z,86.07
2022-12-27T01:32:20.384Z,86.40
2022-12-27T01:32:53.808Z,86.09
2022-12-27T01:33:27.313Z,85.00
2022-12-27T01:34:01.225Z,84.81
2022-12-27T01:34:34.957Z,85.20
2022-12-27T01:35:08.853Z,84.79
2022-12-27T01:35:42.315Z,84.84
2022-12-27T01:36:21.857Z,84.98
2022-12-27T01:36:55.753Z,84.59
2022-12-27T01:37:29.599Z,83.66
2022-12-27T01:38:03.772Z,80.36
2022-12-27T01:38:37.266Z,80.65
2022-12-27T01:39:14.162Z,80.97
2022-12-27T01:39:47.637Z,81.36
2022-12-27T01:40:21.075Z,81.17
2022-12-27T01:40:54.794Z,79.51
2022-12-27T01:41:53.494Z,80.35
2022-12-27T01:42:46.281Z,80.48
2022-12-27T01:43:19.980Z,80.69
2022-12-27T01:43:53.503Z,80.43
2022-12-27T01:44:49.770Z,80.51
2022-12-27T01:45:28.522Z,80.91
2022-12-27T01:46:02.089Z,80.35
2022-12-27T01:46:35.679Z,79.77
2022-12-27T01:47:33.852Z,80.02
2022-12-27T01:48:24.143Z,80.75
2022-12-27T01:48:58.203Z,79.82
2022-12-27T01:49:32.253Z,79.39
2022-12-27T01:50:09.083Z,79.61
2022-12-27T01:50:48.224Z,79.96
2022-12-27T01:51:22.534Z,80.17
2022-12-27T01:51:56.291Z,80.41
2022-12-27T01:52:39.608Z,80.95
2022-12-27T01:53:23.831Z,81.37
2022-12-27T01:53:57.748Z,81.32
2022-12-27T01:54:31.272Z,81.43
2022-12-27T01:55:28.050Z,81.71
2022-12-27T01:56:05.264Z,80.44
2022-12-27T01:56:38.800Z,79.95
2022-12-27T01:57:12.513Z,79.77
2022-12-27T01:57:46.742Z,80.14
2022-12-27T01:58:47.262Z,80.11
2022-12-27T01:59:20.683Z,80.84
2022-12-27T01:59:54.197Z,80.72
2022-12-27T02:00:28.021Z,80.64
2022-12-27T02:01:03.457Z,80.89
2022-12-27T02:01:43.979Z,81.08
2022-12-27T02:02:17.703Z,81.38
2022-12-27T02:02:52.601Z,80.77
2022-12-27T02:03:36.286Z,80.79
2022-12-27T02:04:15.488Z,81.11
2022-12-27T02:04:49.433Z,80.72
2022-12-27T02:05:25.461Z,81.03
2022-12-27T02:06:01.193Z,81.02
2022-12-27T02:06:37.484Z,81.00
2022-12-27T02:07:10.954Z,81.18
2022-12-27T02:07:59.614Z,81.51
2022-12-27T02:08:45.224Z,81.70
2022-12-27T02:09:35.629Z,81.28
2022-12-27T02:10:09.175Z,81.46
2022-12-27T02:10:43.797Z,81.49
2022-12-27T02:11:40.149Z,81.39
2022-12-27T02:12:14.066Z,81.65
2022-12-27T02:12:47.952Z,81.60
2022-12-27T02:13:21.984Z,81.88
2022-12-27T02:13:55.520Z,81.58
2022-12-27T02:14:35.769Z,81.41
2022-12-27T02:15:09.558Z,81.82
2022-12-27T02:15:43.079Z,82.10
2022-12-27T02:16:19.041Z,82.17
2022-12-27T02:16:53.660Z,81.99
2022-12-27T02:17:29.741Z,81.73
2022-12-27T02:18:03.400Z,81.86
2022-12-27T02:18:36.912Z,81.64
2022-12-27T02:19:24.906Z,81.55
2022-12-27T02:20:20.375Z,81.23
2022-12-27T02:21:08.993Z,80.66
2022-12-27T02:22:02.175Z,80.84
2022-12-27T02:23:15.186Z,81.18
2022-12-27T02:24:14.704Z,80.94
2022-12-27T02:25:19.156Z,81.06
2022-12-27T02:26:30.906Z,81.22
2022-12-27T02:27:04.275Z,81.31
2022-12-27T02:27:59.662Z,81.14
2022-12-27T02:29:10.393Z,80.74
2022-12-27T02:30:01.263Z,81.19
2022-12-27T02:30:36.216Z,81.42
2022-12-27T02:31:17.427Z,81.42
2022-12-27T02:32:08.886Z,81.53
2022-12-27T02:32:49.364Z,81.00
2022-12-27T02:33:28.566Z,80.61
2022-12-27T02:34:06.311Z,80.12
2022-12-27T02:35:01.650Z,80.51
2022-12-27T02:35:42.506Z,80.99
2022-12-27T02:36:30.617Z,79.91
2022-12-27T02:37:10.809Z,80.22
2022-12-27T02:38:07.872Z,80.45
2022-12-27T02:38:47.217Z,81.18
2022-12-27T02:39:23.348Z,81.35
2022-12-27T02:40:18.764Z,80.79
2022-12-27T02:41:13.669Z,80.59
2022-12-27T02:42:07.335Z,80.84
2022-12-27T02:43:01.166Z,80.82
2022-12-27T02:43:53.237Z,80.59
2022-12-27T02:44:45.543Z,80.70
2022-12-27T02:45:43.888Z,80.75
2022-12-27T02:46:43.503Z,80.70
2022-12-27T02:47:40.480Z,80.90
2022-12-27T02:48:34.960Z,81.27
2022-12-27T02:51:21.530Z,80.63
2022-12-27T02:52:28.447Z,81.65
2022-12-27T02:53:34.963Z,82.04
2022-12-27T02:54:17.679Z,82.17
2022-12-27T02:55:11.727Z,82.05
2022-12-27T02:56:19.224Z,82.35
2022-12-27T02:57:23.151Z,82.01
2022-12-27T02:58:11.243Z,82.01
2022-12-27T02:59:20.174Z,82.23
2022-12-27T03:00:34.124Z,82.54
2022-12-27T03:01:42.362Z,82.88
2022-12-27T03:03:24.208Z,82.45
2022-12-27T03:04:35.092Z,82.42
2022-12-27T03:05:14.193Z,82.66
2022-12-27T03:06:28.813Z,82.79
2022-12-27T03:07:07.760Z,82.75
2022-12-27T03:07:44.042Z,82.92
2022-12-27T03:08:27.569Z,81.89
2022-12-27T03:09:57.700Z,81.80
2022-12-27T03:11:17.113Z,82.63
2022-12-27T03:12:13.013Z,82.13
2022-12-27T03:13:18.364Z,82.44
2022-12-27T03:14:20.084Z,82.07
2022-12-27T03:15:18.445Z,81.94
2022-12-27T03:16:04.786Z,81.64
2022-12-27T03:16:56.099Z,81.43
2022-12-27T03:17:40.065Z,80.72
2022-12-27T03:18:22.842Z,80.97
2022-12-27T03:20:07.469Z,80.83
2022-12-27T03:21:03.024Z,81.71
2022-12-27T03:22:02.620Z,81.87
2022-12-27T03:22:58.244Z,80.89
2022-12-27T03:23:51.670Z,80.18
2022-12-27T03:24:50.866Z,80.67
2022-12-27T03:25:29.245Z,81.15
2022-12-27T03:26:07.751Z,81.08
2022-12-27T03:26:47.227Z,80.74
2022-12-27T03:27:28.719Z,80.24
2022-12-27T03:28:37.064Z,80.32
2022-12-27T03:29:31.107Z,80.50
2022-12-27T03:30:28.080Z,80.85
2022-12-27T03:31:25.283Z,80.06
2022-12-27T03:32:22.370Z,79.74
2022-12-27T03:33:15.250Z,80.46
2022-12-27T03:33:59.990Z,80.57
2022-12-27T03:34:40.073Z,79.79
2022-12-27T03:35:19.724Z,79.85
2022-12-27T03:36:41.372Z,79.71
2022-12-27T03:37:41.189Z,79.67
2022-12-27T03:38:16.576Z,79.67
2022-12-27T03:39:07.657Z,79.56
2022-12-27T03:39:51.621Z,79.25
2022-12-27T03:41:03.558Z,78.38
2022-12-27T03:42:01.564Z,78.86
2022-12-27T03:42:58.716Z,78.14
2022-12-27T03:43:33.864Z,77.78
2022-12-27T03:44:24.702Z,76.98
2022-12-27T03:44:58.190Z,77.53
2022-12-27T03:46:13.818Z,78.24
2022-12-27T03:46:49.427Z,75.37
2022-12-27T03:47:53.611Z,75.17
2022-12-27T03:48:32.106Z,75.29
2022-12-27T03:49:35.713Z,75.71
2022-12-27T03:50:18.169Z,75.00
2022-12-27T03:50:56.979Z,74.62
2022-12-27T03:51:36.397Z,74.16
2022-12-27T03:52:37.875Z,74.82
2022-12-27T03:53:38.642Z,75.22
2022-12-27T03:54:26.842Z,74.52
2022-12-27T03:55:01.801Z,73.82
2022-12-27T03:55:35.765Z,73.36
2022-12-27T03:56:09.959Z,73.88
2022-12-27T03:56:43.391Z,74.42
2022-12-27T03:57:23.861Z,74.25
2022-12-27T03:57:57.282Z,74.52
2022-12-27T03:58:31.126Z,74.87
2022-12-27T03:59:05.635Z,75.39
2022-12-27T03:59:39.736Z,74.93
2022-12-27T04:00:13.802Z,74.78
2022-12-27T04:00:47.526Z,74.68
2022-12-27T04:01:21.094Z,74.48
2022-12-27T04:01:55.340Z,74.10
2022-12-27T04:02:28.951Z,74.32
2022-12-27T04:03:02.664Z,74.82
2022-12-27T04:03:36.334Z,74.33
2022-12-27T04:04:09.820Z,73.00
2022-12-27T04:04:43.325Z,72.41
2022-12-27T04:05:17.715Z,72.94
2022-12-27T04:05:51.761Z,73.72
2022-12-27T04:06:25.378Z,73.37
2022-12-27T04:06:59.026Z,72.39
2022-12-27T04:07:32.570Z,72.81
2022-12-27T04:08:24.716Z,72.76
2022-12-27T04:09:16.958Z,73.06
2022-12-27T04:10:09.225Z,72.65
2022-12-27T04:11:01.492Z,73.24
2022-12-27T04:11:53.737Z,73.42
2022-12-27T04:12:45.756Z,73.69
2022-12-27T04:13:38.395Z,73.32
2022-12-27T04:14:30.846Z,73.56
2022-12-27T04:15:23.258Z,73.53
2022-12-27T04:16:15.285Z,73.88
2022-12-27T04:17:07.407Z,74.48
2022-12-27T04:17:59.397Z,74.88
2022-12-27T04:18:51.460Z,74.63
2022-12-27T04:19:43.813Z,73.88
2022-12-27T04:20:35.992Z,74.21
2022-12-27T04:21:27.918Z,74.49
2022-12-27T04:22:19.837Z,74.26
2022-12-27T04:23:11.772Z,73.72
2022-12-27T04:24:03.857Z,73.55
2022-12-27T04:24:55.640Z,73.84
2022-12-27T04:25:47.775Z,73.86
2022-12-27T04:26:39.638Z,73.14
2022-12-27T04:27:31.945Z,72.36
2022-12-27T04:28:24.174Z,72.48
2022-12-27T04:29:15.961Z,73.07
2022-12-27T04:30:07.813Z,73.15
2022-12-27T04:30:59.723Z,73.32
2022-12-27T04:31:51.847Z,73.09
2022-12-27T04:32:43.966Z,73.86
2022-12-27T04:33:35.866Z,74.03
2022-12-27T04:34:28.571Z,73.66
2022-12-27T04:35:02.118Z,73.88
2022-12-27T04:35:35.776Z,74.07
2022-12-27T04:36:09.512Z,73.99
2022-12-27T04:36:43.250Z,74.39
2022-12-27T04:37:19.780Z,74.29
2022-12-27T04:37:53.407Z,74.54
2022-12-27T04:38:26.820Z,74.36
2022-12-27T04:39:00.214Z,74.56
2022-12-27T04:39:33.642Z,75.21
2022-12-27T04:40:26.384Z,75.13
2022-12-27T04:41:18.642Z,75.23
2022-12-27T04:42:10.988Z,75.29
2022-12-27T04:43:02.964Z,75.59
2022-12-27T04:43:54.865Z,75.87
2022-12-27T04:44:46.987Z,75.72
2022-12-27T04:45:40.037Z,75.61
2022-12-27T04:46:44.191Z,76.20
2022-12-27T04:47:40.017Z,76.60
2022-12-27T04:48:34.008Z,76.74
2022-12-27T04:49:31.204Z,76.76
2022-12-27T04:50:28.961Z,76.78
2022-12-27T04:51:21.137Z,76.86
2022-12-27T04:52:13.444Z,76.54
2022-12-27T04:53:06.959Z,76.16
2022-12-27T04:53:58.809Z,76.74
2022-12-27T04:54:51.048Z,76.80
2022-12-27T04:55:28.409Z,76.96
2022-12-27T04:56:02.553Z,76.90
2022-12-27T04:56:36.059Z,76.99
2022-12-27T04:57:09.520Z,77.34
2022-12-27T04:57:42.948Z,76.62
2022-12-27T04:58:16.371Z,76.94
2022-12-27T04:59:08.463Z,76.72
2022-12-27T05:00:00.794Z,76.12
2022-12-27T05:00:53.053Z,76.17
2022-12-27T05:01:45.658Z,76.13
2022-12-27T05:02:20.026Z,75.41
2022-12-27T05:02:54.236Z,75.64
2022-12-27T05:03:27.844Z,75.42
2022-12-27T05:04:01.551Z,75.71
2022-12-27T05:04:37.587Z,75.47
2022-12-27T05:05:11.957Z,75.84
2022-12-27T05:05:46.610Z,76.06
2022-12-27T05:06:20.687Z,76.04
2022-12-27T05:06:54.450Z,75.91
2022-12-27T05:07:46.645Z,75.99
2022-12-27T05:08:39.951Z,75.84
2022-12-27T05:09:31.999Z,76.14
2022-12-27T05:10:25.337Z,76.40
2022-12-27T05:11:17.490Z,76.19
2022-12-27T05:12:19.865Z,76.07
2022-12-27T05:13:12.498Z,75.96
2022-12-27T05:14:01.689Z,75.85
2022-12-27T05:14:35.320Z,76.24
2022-12-27T05:15:09.282Z,76.37
2022-12-27T05:15:42.794Z,76.84
2022-12-27T05:16:16.759Z,76.79
2022-12-27T05:16:50.442Z,76.86
2022-12-27T05:17:23.905Z,77.20
2022-12-27T05:17:58.306Z,77.07
2022-12-27T05:18:31.688Z,77.12
2022-12-27T05:19:07.437Z,77.25
2022-12-27T05:19:40.946Z,77.02
2022-12-27T05:20:14.433Z,77.33
2022-12-27T05:20:47.947Z,77.00
2022-12-27T05:21:21.749Z,77.02
2022-12-27T05:22:13.807Z,76.95
2022-12-27T05:23:05.896Z,76.87
2022-12-27T05:24:04.928Z,77.01
2022-12-27T05:24:57.516Z,77.16
2022-12-27T05:25:38.684Z,76.82
2022-12-27T05:26:22.427Z,77.13
2022-12-27T05:26:58.603Z,77.49
2022-12-27T05:27:32.115Z,77.27
2022-12-27T05:28:08.140Z,77.47
2022-12-27T05:28:41.729Z,77.57
2022-12-27T05:29:15.213Z,77.69
2022-12-27T05:29:48.734Z,77.91
2022-12-27T05:30:22.238Z,77.92
2022-12-27T05:31:01.984Z,78.08
2022-12-27T05:31:36.843Z,77.87
2022-12-27T05:32:13.273Z,77.61
2022-12-27T05:32:47.188Z,77.55
2022-12-27T05:33:20.587Z,77.76
2022-12-27T05:33:54.265Z,77.47
2022-12-27T05:34:27.697Z,77.44
2022-12-27T05:35:01.651Z,77.57
2022-12-27T05:35:35.668Z,77.57
2022-12-27T05:36:10.046Z,77.50
2022-12-27T05:36:43.456Z,77.53
2022-12-27T05:37:16.903Z,77.53
2022-12-27T05:37:55.017Z,77.61
2022-12-27T05:38:28.735Z,77.29
2022-12-27T05:39:02.680Z,76.75
2022-12-27T05:39:36.315Z,76.89
2022-12-27T05:40:10.793Z,76.70
2022-12-27T05:40:47.387Z,76.71
2022-12-27T05:41:21.121Z,77.14
2022-12-27T05:41:54.637Z,77.17
2022-12-27T05:42:28.046Z,77.43
2022-12-27T05:43:03.158Z,77.81
2022-12-27T05:43:36.802Z,77.78
2022-12-27T05:44:11.281Z,77.83
2022-12-27T05:44:45.165Z,77.83
2022-12-27T05:45:19.507Z,78.27
2022-12-27T05:45:53.579Z,78.34
2022-12-27T05:46:27.085Z,78.42
2022-12-27T05:47:00.654Z,78.49
2022-12-27T05:47:34.192Z,78.53
2022-12-27T05:48:07.646Z,78.44
2022-12-27T05:48:41.923Z,78.60
2022-12-27T05:49:15.428Z,78.34
2022-12-27T05:49:48.902Z,78.17
2022-12-27T05:50:22.319Z,78.44
2022-12-27T05:50:56.466Z,78.53
2022-12-27T05:51:29.912Z,78.50
2022-12-27T05:52:03.408Z,78.58
2022-12-27T05:52:40.912Z,78.46
2022-12-27T05:53:15.060Z,78.69
2022-12-27T05:53:49.476Z,78.67
2022-12-27T05:54:22.940Z,78.45
2022-12-27T05:54:56.396Z,78.40
2022-12-27T05:55:30.878Z,78.38
2022-12-27T05:56:04.831Z,78.59
2022-12-27T05:56:38.334Z,78.69
2022-12-27T05:57:11.679Z,78.57
2022-12-27T05:57:45.168Z,78.69
2022-12-27T05:58:18.625Z,78.77
2022-12-27T05:58:55.021Z,78.91
2022-12-27T05:59:28.426Z,78.71
2022-12-27T06:00:02.047Z,78.65
2022-12-27T06:00:45.557Z,78.78
2022-12-27T06:01:19.023Z,78.93
2022-12-27T06:01:52.607Z,78.98
2022-12-27T06:02:26.454Z,79.05
2022-12-27T06:03:03.409Z,78.84
2022-12-27T06:03:37.702Z,78.87
2022-12-27T06:04:11.207Z,78.75
2022-12-27T06:04:45.085Z,78.43
2022-12-27T06:05:18.501Z,78.45
2022-12-27T06:05:52.090Z,78.58
2022-12-27T06:06:25.701Z,78.49
2022-12-27T06:06:59.465Z,78.41
2022-12-27T06:07:37.296Z,78.48
2022-12-27T06:08:11.290Z,78.01
2022-12-27T06:08:44.915Z,78.25
2022-12-27T06:09:18.370Z,78.53
2022-12-27T06:09:52.023Z,78.73
2022-12-27T06:10:25.425Z,78.84
2022-12-27T06:11:11.463Z,79.01
2022-12-27T06:11:44.946Z,78.69
2022-12-27T06:12:18.351Z,78.43
2022-12-27T06:12:51.953Z,78.48
2022-12-27T06:13:25.290Z,78.58
2022-12-27T06:13:58.695Z,78.30
2022-12-27T06:14:32.319Z,77.79
2022-12-27T06:15:07.224Z,77.09
2022-12-27T06:15:40.688Z,76.57
2022-12-27T06:16:14.176Z,77.08
2022-12-27T06:16:47.664Z,77.34
2022-12-27T06:17:21.170Z,77.36
2022-12-27T06:17:54.837Z,77.00
2022-12-27T06:18:33.647Z,77.71
2022-12-27T06:19:07.087Z,77.89
2022-12-27T06:19:40.498Z,77.35
2022-12-27T06:20:14.014Z,77.34
2022-12-27T06:20:47.430Z,77.03
2022-12-27T06:21:22.220Z,77.16
2022-12-27T06:21:55.631Z,77.27
2022-12-27T06:22:29.166Z,77.82
2022-12-27T06:23:02.579Z,77.60
2022-12-27T06:23:38.327Z,76.90
2022-12-27T06:24:11.783Z,77.02
2022-12-27T06:24:45.191Z,76.49
2022-12-27T06:25:18.785Z,76.73
2022-12-27T06:25:52.320Z,76.80
2022-12-27T06:26:28.082Z,76.84
2022-12-27T06:27:01.517Z,76.90
2022-12-27T06:27:35.270Z,77.02
2022-12-27T06:28:08.729Z,77.00
2022-12-27T06:28:42.252Z,77.20
2022-12-27T06:29:16.483Z,76.42
2022-12-27T06:29:49.995Z,75.94
2022-12-27T06:30:23.586Z,76.46
2022-12-27T06:30:59.669Z,76.71
2022-12-27T06:31:33.121Z,77.05
2022-12-27T06:32:06.831Z,77.17
2022-12-27T06:32:40.250Z,77.19
2022-12-27T06:33:13.746Z,77.45
2022-12-27T06:33:49.244Z,76.76
2022-12-27T06:34:22.677Z,76.58
2022-12-27T06:34:56.239Z,75.70
2022-12-27T06:35:29.624Z,75.79
2022-12-27T06:36:11.802Z,75.84
2022-12-27T06:36:50.394Z,76.06
2022-12-27T06:37:23.845Z,76.44
2022-12-27T06:37:57.275Z,76.50
2022-12-27T06:38:30.732Z,76.08
2022-12-27T06:39:04.195Z,76.21
2022-12-27T06:39:37.649Z,76.07
2022-12-27T06:40:11.533Z,76.16
2022-12-27T06:40:44.932Z,75.69
2022-12-27T06:41:19.725Z,75.66
2022-12-27T06:41:55.461Z,75.86
2022-12-27T06:42:31.108Z,76.28
2022-12-27T06:43:04.562Z,76.49
2022-12-27T06:43:38.727Z,76.49
2022-12-27T06:44:12.297Z,76.39
2022-12-27T06:44:45.721Z,75.90
2022-12-27T06:45:19.137Z,75.25
2022-12-27T06:46:17.373Z,75.58
2022-12-27T06:46:51.782Z,76.17
2022-12-27T06:47:25.544Z,76.33
2022-12-27T06:47:58.991Z,76.18
2022-12-27T06:48:32.413Z,75.78
2022-12-27T06:49:05.893Z,76.15
2022-12-27T06:49:39.363Z,76.36
2022-12-27T06:50:13.759Z,76.25
2022-12-27T06:50:47.181Z,76.66
2022-12-27T06:51:21.481Z,76.63
2022-12-27T06:51:59.491Z,76.45
2022-12-27T06:52:33.427Z,76.17
2022-12-27T06:53:06.819Z,76.31
2022-12-27T06:53:40.348Z,75.99
2022-12-27T06:54:13.936Z,75.76
2022-12-27T06:54:48.112Z,75.95
2022-12-27T06:55:21.775Z,76.16
2022-12-27T06:55:55.151Z,75.80
2022-12-27T06:56:28.708Z,75.93
2022-12-27T06:57:02.184Z,75.95
2022-12-27T06:57:35.731Z,76.03
2022-12-27T06:58:09.235Z,76.21
2022-12-27T06:58:42.693Z,76.45
2022-12-27T06:59:16.085Z,76.37
2022-12-27T06:59:54.016Z,76.33
2022-12-27T07:00:27.792Z,76.47
2022-12-27T07:01:15.492Z,76.44
2022-12-27T07:01:49.091Z,76.21
2022-12-27T07:02:22.962Z,76.24
2022-12-27T07:02:56.555Z,76.49
2022-12-27T07:03:30.026Z,76.18
2022-12-27T07:04:03.631Z,76.19
2022-12-27T07:04:37.080Z,75.97
2022-12-27T07:05:10.536Z,76.23
2022-12-27T07:05:44.257Z,76.08
2022-12-27T07:06:18.946Z,76.33
2022-12-27T07:06:52.507Z,76.46
2022-12-27T07:07:25.895Z,76.80
2022-12-27T07:07:59.324Z,76.82
2022-12-27T07:08:33.022Z,76.64
2022-12-27T07:09:06.910Z,76.77
2022-12-27T07:09:40.383Z,76.50
2022-12-27T07:10:13.885Z,76.34
2022-12-27T07:10:47.364Z,76.38
2022-12-27T07:11:22.229Z,76.24
2022-12-27T07:11:55.622Z,76.39
2022-12-27T07:12:33.259Z,76.32
2022-12-27T07:13:10.056Z,76.46
2022-12-27T07:13:50.246Z,76.52
2022-12-27T07:14:23.845Z,77.01
2022-12-27T07:14:57.199Z,77.15
2022-12-27T07:15:30.598Z,76.90
2022-12-27T07:16:09.211Z,76.99
2022-12-27T07:16:42.741Z,77.48
2022-12-27T07:17:16.259Z,77.15
2022-12-27T07:17:49.717Z,77.40
2022-12-27T07:18:23.200Z,77.42
2022-12-27T07:18:58.711Z,77.56
2022-12-27T07:19:32.086Z,77.10
2022-12-27T07:20:07.350Z,77.22
2022-12-27T07:20:40.706Z,77.38
2022-12-27T07:21:19.950Z,77.23
2022-12-27T07:21:53.445Z,77.07
2022-12-27T07:22:29.959Z,77.06
2022-12-27T07:23:03.875Z,76.59
2022-12-27T07:23:37.961Z,76.55
2022-12-27T07:24:11.557Z,76.63
2022-12-27T07:24:44.949Z,76.94
2022-12-27T07:25:18.858Z,76.95
2022-12-27T07:25:52.261Z,77.20
2022-12-27T07:26:30.263Z,76.14
2022-12-27T07:27:05.148Z,76.12
2022-12-27T07:27:38.587Z,75.96
2022-12-27T07:28:12.465Z,76.27
2022-12-27T07:28:46.459Z,75.62
2022-12-27T07:29:19.911Z,75.59
2022-12-27T07:29:53.396Z,75.64
2022-12-27T07:30:27.085Z,76.58
2022-12-27T07:31:01.106Z,76.68
2022-12-27T07:31:34.665Z,76.58
2022-12-27T07:32:08.065Z,76.35
2022-12-27T07:32:41.481Z,76.42
2022-12-27T07:33:18.050Z,75.92
2022-12-27T07:33:51.954Z,75.93
2022-12-27T07:34:26.314Z,76.12
2022-12-27T07:34:59.851Z,74.66
2022-12-27T07:35:33.326Z,74.84
2022-12-27T07:36:10.046Z,75.29
2022-12-27T07:36:43.725Z,75.27
2022-12-27T07:37:18.308Z,75.40
2022-12-27T07:37:52.028Z,75.96
2022-12-27T07:38:25.392Z,76.04
2022-12-27T07:38:58.871Z,75.92
2022-12-27T07:39:32.306Z,75.64
2022-12-27T07:40:06.312Z,75.04
2022-12-27T07:40:39.788Z,73.66
2022-12-27T07:41:14.052Z,71.65
2022-12-27T07:41:47.597Z,72.50
2022-12-27T07:42:20.988Z,73.38
2022-12-27T07:42:55.065Z,73.27
2022-12-27T07:43:35.997Z,73.63
2022-12-27T07:44:10.104Z,71.97
2022-12-27T07:44:43.475Z,72.34
2022-12-27T07:45:17.039Z,71.94
2022-12-27T07:45:50.434Z,72.75
2022-12-27T07:46:26.829Z,72.33
2022-12-27T07:47:00.219Z,71.40
2022-12-27T07:47:33.656Z,72.25
2022-12-27T07:48:07.751Z,73.31
2022-12-27T07:48:42.036Z,73.47
2022-12-27T07:49:17.853Z,73.28
2022-12-27T07:49:51.649Z,73.24
2022-12-27T07:50:24.996Z,73.25
2022-12-27T07:50:58.443Z,70.06
2022-12-27T07:51:31.897Z,70.96
2022-12-27T07:52:05.410Z,68.11
2022-12-27T07:52:38.849Z,69.11
2022-12-27T07:53:15.192Z,68.50
2022-12-27T07:53:49.677Z,66.24
2022-12-27T07:54:23.209Z,65.44
2022-12-27T07:54:56.568Z,66.92
2022-12-27T07:55:30.173Z,67.50
2022-12-27T07:56:20.215Z,68.16
2022-12-27T07:56:57.153Z,69.17
2022-12-27T07:57:30.676Z,66.30
2022-12-27T07:58:04.950Z,65.85
2022-12-27T07:58:43.200Z,66.73
2022-12-27T07:59:16.552Z,67.06
2022-12-27T07:59:50.058Z,68.25
2022-12-27T08:00:23.409Z,67.68
2022-12-27T08:00:57.026Z,67.93
2022-12-27T08:01:55.009Z,68.03
2022-12-27T08:02:29.706Z,68.28
2022-12-27T08:03:06.432Z,68.69
2022-12-27T08:03:40.552Z,66.98
2022-12-27T08:04:14.020Z,66.47
2022-12-27T08:04:47.391Z,66.48
2022-12-27T08:05:25.947Z,66.03
2022-12-27T08:06:01.540Z,65.71
2022-12-27T08:06:35.395Z,65.87
2022-12-27T08:07:19.994Z,66.43
2022-12-27T08:07:53.599Z,64.98
2022-12-27T08:08:36.808Z,64.36
2022-12-27T08:09:15.403Z,65.21
2022-12-27T08:09:49.501Z,66.00
2022-12-27T08:10:22.921Z,66.08
2022-12-27T08:11:00.580Z,66.14
2022-12-27T08:11:38.872Z,64.43
2022-12-27T08:12:15.563Z,64.56
2022-12-27T08:12:48.943Z,65.16
2022-12-27T08:13:22.495Z,65.06
2022-12-27T08:13:55.991Z,64.94
2022-12-27T08:14:29.402Z,65.51
2022-12-27T08:15:02.945Z,65.33
2022-12-27T08:15:37.754Z,64.40
2022-12-27T08:16:21.014Z,65.78
2022-12-27T08:16:59.565Z,65.67
2022-12-27T08:17:33.007Z,66.17
2022-12-27T08:18:06.525Z,66.29
2022-12-27T08:18:41.810Z,66.58
2022-12-27T08:19:15.251Z,65.88
2022-12-27T08:19:51.780Z,62.79
2022-12-27T08:20:25.452Z,63.78
2022-12-27T08:20:58.932Z,63.49
2022-12-27T08:21:32.798Z,63.84
2022-12-27T08:22:06.243Z,62.74
2022-12-27T08:22:39.720Z,63.51
2022-12-27T08:23:13.210Z,63.06
2022-12-27T08:23:46.689Z,63.02
2022-12-27T08:24:20.128Z,64.34
2022-12-27T08:24:55.123Z,63.77